Time;durP1;ratioP1;P1;durP2;ratioP2;P2;SDS_P1;SDS_P2;PMS_P1;PMS_P2;Temp;Humidity;BMP_temperature;BMP_pressure;BME280_temperature;BME280_humidity;BME280_pressure;Samples;Min_cycle;Max_cycle;Signal;HPM_P1;HPM_P2
2021/03/20 00:01:20;;;;;;;38.83;21.97;;;;;;;3.30;82.59;95679.28;5051745;28;20252;-60
2021/03/20 00:03:47;;;;;;;36.10;21.70;;;;;;;3.27;82.38;95682.34;5051594;28;20276;-60
2021/03/20 00:06:17;;;;;;;31.93;21.43;;;;;;;3.20;82.88;95686.88;5051521;28;20288;-60
2021/03/20 00:08:44;;;;;;;33.23;19.77;;;;;;;3.22;84.17;95684.84;5051479;28;20716;-60
2021/03/20 00:11:12;;;;;;;36.23;22.40;;;;;;;3.07;85.36;95690.63;5051317;28;20837;-60
2021/03/20 00:13:40;;;;;;;31.50;19.43;;;;;;;3.25;84.59;95694.63;5051171;28;20225;-60
2021/03/20 00:16:07;;;;;;;27.47;17.23;;;;;;;3.28;85.26;95692.38;5051523;28;20314;-59
2021/03/20 00:18:34;;;;;;;31.57;19.37;;;;;;;3.19;85.86;95690.47;5051251;28;20236;-60
2021/03/20 00:21:01;;;;;;;31.33;19.27;;;;;;;3.21;86.19;95694.34;5051754;28;20250;-60
2021/03/20 00:23:29;;;;;;;32.10;19.87;;;;;;;3.08;86.00;95693.94;5051246;28;20197;-60
2021/03/20 00:25:56;;;;;;;32.20;20.23;;;;;;;3.03;85.90;95692.13;5051150;28;20246;-60
2021/03/20 00:28:26;;;;;;;29.73;19.70;;;;;;;3.08;86.62;95688.81;5051230;28;20284;-60
2021/03/20 00:30:57;;;;;;;28.40;18.40;;;;;;;3.19;85.94;95691.22;5051228;28;20200;-60
2021/03/20 00:33:24;;;;;;;32.07;19.73;;;;;;;3.08;85.26;95692.16;5050977;28;20315;-60
2021/03/20 00:35:53;;;;;;;32.37;19.40;;;;;;;3.14;84.89;95688.63;5050884;28;20291;-60
2021/03/20 00:38:21;;;;;;;31.87;19.23;;;;;;;3.14;84.93;95680.16;5050904;28;20292;-60
2021/03/20 00:40:49;;;;;;;32.83;19.43;;;;;;;3.19;84.77;95687.91;5050647;28;20229;-60
2021/03/20 00:43:17;;;;;;;32.40;18.63;;;;;;;3.20;85.02;95692.00;5050834;28;20236;-60
2021/03/20 00:45:44;;;;;;;31.23;19.50;;;;;;;3.06;84.59;95689.06;5050770;28;20286;-59
2021/03/20 00:48:14;;;;;;;28.30;18.17;;;;;;;3.06;84.01;95685.72;5050510;28;20315;-59
2021/03/20 00:50:44;;;;;;;28.17;18.53;;;;;;;3.11;84.77;95683.19;5050628;28;20197;-59
2021/03/20 00:53:12;;;;;;;28.30;17.70;;;;;;;3.12;83.98;95674.47;5050425;28;20236;-59
2021/03/20 00:55:39;;;;;;;26.90;17.27;;;;;;;3.12;84.81;95674.47;5050589;28;20201;-60
2021/03/20 00:58:19;;;;;;;30.30;18.60;;;;;;;3.11;84.30;95678.84;5050449;28;20702;-59
2021/03/20 01:00:47;;;;;;;35.07;18.80;;;;;;;3.07;84.48;95674.44;5050507;28;20241;-60
2021/03/20 01:03:15;;;;;;;36.00;20.10;;;;;;;3.02;84.60;95675.16;5050507;28;20260;-59
2021/03/20 01:05:42;;;;;;;34.00;20.47;;;;;;;3.05;84.32;95677.22;5050487;28;20238;-57
2021/03/20 01:08:09;;;;;;;33.17;19.67;;;;;;;2.98;85.97;95674.09;5050242;28;20233;-59
2021/03/20 01:10:36;;;;;;;29.13;18.90;;;;;;;3.09;84.92;95675.72;5050299;28;20351;-59
2021/03/20 01:13:04;;;;;;;28.70;18.50;;;;;;;3.01;86.07;95676.16;5050092;28;20235;-60
2021/03/20 01:15:32;;;;;;;29.23;18.87;;;;;;;3.13;85.22;95679.38;5050476;28;20297;-60
2021/03/20 01:17:59;;;;;;;28.57;18.33;;;;;;;3.18;84.00;95679.44;5050611;28;20534;-60
2021/03/20 01:20:26;;;;;;;30.80;18.90;;;;;;;3.19;84.00;95675.06;5050118;28;20233;-59
2021/03/20 01:22:55;;;;;;;31.43;18.77;;;;;;;3.16;84.18;95691.72;5050097;28;20692;-60
2021/03/20 01:25:22;;;;;;;29.37;17.80;;;;;;;3.17;83.68;95683.00;5050147;28;20687;-59
2021/03/20 01:27:50;;;;;;;34.33;20.20;;;;;;;3.09;85.13;95675.72;5050003;28;20284;-60
2021/03/20 01:30:21;;;;;;;36.60;22.57;;;;;;;2.95;85.27;95675.34;5049967;28;20236;-59
2021/03/20 01:32:48;;;;;;;37.73;22.03;;;;;;;3.00;84.41;95669.47;5050116;28;20320;-59
2021/03/20 01:35:16;;;;;;;33.37;20.47;;;;;;;2.96;85.69;95678.69;5049915;28;20192;-59
2021/03/20 01:37:42;;;;;;;31.13;18.30;;;;;;;2.90;84.13;95677.06;5049855;28;20198;-58
2021/03/20 01:40:11;;;;;;;30.23;17.57;;;;;;;2.92;83.41;95677.59;5049864;28;20703;-60
2021/03/20 01:42:42;;;;;;;28.13;17.37;;;;;;;3.03;82.05;95684.41;5049790;28;20243;-60
2021/03/20 01:45:16;;;;;;;28.37;16.97;;;;;;;3.09;80.60;95683.44;5049747;28;20695;-59
2021/03/20 01:47:58;;;;;;;26.50;15.63;;;;;;;2.96;80.03;95682.03;5049793;28;20200;-59
2021/03/20 01:50:34;;;;;;;22.83;14.20;;;;;;;2.97;81.50;95683.56;5049742;28;20193;-60
2021/03/20 01:53:14;;;;;;;21.97;13.97;;;;;;;3.05;80.55;95692.63;5049071;28;20322;-60
2021/03/20 01:55:42;;;;;;;24.67;13.83;;;;;;;2.95;80.20;95680.47;5049679;28;20288;-59
2021/03/20 01:58:09;;;;;;;20.00;13.80;;;;;;;2.97;79.37;95685.38;5049561;28;20276;-61
2021/03/20 02:00:39;;;;;;;22.60;14.30;;;;;;;2.94;81.29;95684.03;5049558;28;20193;-59
2021/03/20 02:03:10;;;;;;;24.27;15.07;;;;;;;2.87;80.40;95688.59;5049356;28;20195;-60
2021/03/20 02:05:38;;;;;;;23.53;14.20;;;;;;;2.99;80.23;95684.09;5049547;28;20232;-60
2021/03/20 02:08:08;;;;;;;23.07;14.90;;;;;;;2.99;81.29;95685.88;5049596;28;20232;-60
2021/03/20 02:10:38;;;;;;;21.87;13.90;;;;;;;2.91;80.74;95694.03;5049389;28;20213;-59
2021/03/20 02:13:12;;;;;;;22.37;14.37;;;;;;;2.90;81.51;95685.53;5049290;28;20707;-59
2021/03/20 02:15:45;;;;;;;21.67;13.23;;;;;;;3.01;81.19;95679.50;5050047;28;20222;-59
2021/03/20 02:18:19;;;;;;;22.43;14.03;;;;;;;2.82;82.41;95680.06;5049658;28;20196;-59
2021/03/20 02:21:07;;;;;;;23.60;15.30;;;;;;;2.67;84.38;95680.66;5049770;28;20282;-60
2021/03/20 02:24:09;;;;;;;22.53;14.00;;;;;;;2.62;84.95;95679.81;5049942;28;20683;-60
2021/03/20 02:27:16;;;;;;;23.80;13.47;;;;;;;2.76;84.96;95691.28;5049722;28;20247;-60
2021/03/20 02:30:15;;;;;;;23.27;14.47;;;;;;;2.74;85.07;95696.63;5049614;28;20242;-59
2021/03/20 02:33:12;;;;;;;20.53;13.70;;;;;;;2.61;85.17;95686.75;5049490;28;20218;-59
2021/03/20 02:35:43;;;;;;;19.73;13.07;;;;;;;2.50;87.21;95685.06;5049557;28;20232;-59
2021/03/20 02:38:24;;;;;;;22.80;13.43;;;;;;;2.71;86.87;95683.53;5049192;28;20738;-60
2021/03/20 02:41:01;;;;;;;21.17;13.57;;;;;;;2.63;86.87;95687.28;5049260;28;20202;-59
2021/03/20 02:43:37;;;;;;;20.13;12.73;;;;;;;2.56;88.08;95691.81;5049622;28;20698;-60
2021/03/20 02:46:10;;;;;;;21.23;13.47;;;;;;;2.54;88.73;95684.34;5049660;28;20761;-60
2021/03/20 02:48:47;;;;;;;19.10;12.30;;;;;;;2.38;89.53;95681.84;5049346;28;20235;-61
2021/03/20 02:51:22;;;;;;;22.97;12.87;;;;;;;2.22;91.67;95693.66;5049373;28;20204;-59
2021/03/20 02:53:58;;;;;;;19.87;12.17;;;;;;;2.24;94.17;95683.97;5049361;28;20263;-60
2021/03/20 02:56:29;;;;;;;20.50;12.87;;;;;;;2.23;94.32;95690.09;5049302;28;20747;-60
2021/03/20 02:59:01;;;;;;;23.23;13.40;;;;;;;2.29;94.50;95689.13;5049433;28;20201;-60
2021/03/20 03:01:30;;;;;;;23.43;14.90;;;;;;;2.21;96.32;95693.91;5049355;28;20204;-60
2021/03/20 03:04:00;;;;;;;22.17;14.57;;;;;;;2.16;96.63;95692.81;5051251;28;20741;-59
2021/03/20 03:06:30;;;;;;;21.83;14.13;;;;;;;2.16;96.63;95694.59;5053193;28;20759;-60
2021/03/20 03:09:01;;;;;;;23.23;14.47;;;;;;;2.07;97.32;95693.44;5053291;28;20236;-60
2021/03/20 03:11:33;;;;;;;23.40;14.47;;;;;;;1.96;98.68;95689.19;5052982;28;20215;-60
2021/03/20 03:14:06;;;;;;;25.43;13.90;;;;;;;2.03;99.36;95688.03;5052818;28;20232;-60
2021/03/20 03:16:37;;;;;;;22.57;14.43;;;;;;;1.94;98.85;95701.47;5053122;28;20584;-59
2021/03/20 03:19:09;;;;;;;26.13;15.87;;;;;;;1.86;98.81;95696.72;5052908;28;20200;-60
2021/03/20 03:21:41;;;;;;;24.00;15.13;;;;;;;1.85;99.64;95700.28;5052974;28;20579;-60
2021/03/20 03:24:11;;;;;;;23.10;13.53;;;;;;;1.99;99.99;95706.66;5052814;28;20676;-60
2021/03/20 03:26:41;;;;;;;22.43;13.53;;;;;;;1.97;99.08;95703.56;5052617;28;20664;-60
2021/03/20 03:29:21;;;;;;;19.50;12.33;;;;;;;1.87;99.03;95695.72;5052887;28;20200;-60
2021/03/20 03:31:57;;;;;;;17.90;12.67;;;;;;;2.04;99.25;95704.94;5053043;28;20691;-60
2021/03/20 03:34:31;;;;;;;17.73;11.93;;;;;;;2.01;98.92;95702.06;5052555;28;20253;-60
2021/03/20 03:37:08;;;;;;;19.57;12.97;;;;;;;2.06;99.01;95702.16;5052501;28;20287;-60
2021/03/20 03:39:43;;;;;;;18.70;12.47;;;;;;;1.98;98.87;95712.78;5052737;28;20634;-60
2021/03/20 03:42:13;;;;;;;21.40;13.80;;;;;;;2.06;98.79;95705.50;5052534;28;20264;-59
2021/03/20 03:44:43;;;;;;;22.10;13.60;;;;;;;2.07;98.18;95703.69;5052435;28;20203;-57
2021/03/20 03:47:12;;;;;;;21.53;14.10;;;;;;;2.01;99.57;95704.63;5052291;28;20683;-59
2021/03/20 03:49:40;;;;;;;22.77;14.30;;;;;;;2.05;99.53;95705.72;5051970;28;20322;-60
2021/03/20 03:52:07;;;;;;;22.73;14.33;;;;;;;2.21;99.33;95704.16;5052413;28;20202;-59
2021/03/20 03:54:35;;;;;;;24.37;15.50;;;;;;;2.26;98.98;95711.91;5052121;28;20319;-60
2021/03/20 03:57:44;;;;;;;22.80;14.50;;;;;;;2.20;99.30;95705.94;5052084;28;20280;-60
2021/03/20 04:00:20;;;;;;;23.60;15.10;;;;;;;2.23;98.65;95702.91;5010271;28;20220;-60
2021/03/20 04:03:13;;;;;;;22.43;14.00;;;;;;;2.27;99.71;95701.44;5048555;28;20280;-60
2021/03/20 04:05:51;;;;;;;27.60;16.70;;;;;;;2.16;100.00;95699.72;5052073;28;20596;-60
2021/03/20 04:08:27;;;;;;;26.67;16.60;;;;;;;2.28;99.10;95697.09;5052008;28;20232;-60
2021/03/20 04:10:59;;;;;;;23.00;14.33;;;;;;;2.31;98.19;95688.91;5051795;28;20328;-60
2021/03/20 04:13:33;;;;;;;24.40;15.03;;;;;;;2.30;98.75;95693.25;5051751;28;20793;-60
2021/03/20 04:16:06;;;;;;;22.27;14.67;;;;;;;2.38;98.40;95687.75;5051262;28;20195;-60
2021/03/20 04:18:41;;;;;;;21.10;14.40;;;;;;;2.32;98.28;95691.25;5051706;28;20273;-60
2021/03/20 04:21:22;;;;;;;22.97;15.70;;;;;;;2.26;98.50;95687.06;5051642;28;20311;-60
2021/03/20 04:24:01;;;;;;;24.70;16.43;;;;;;;2.22;98.41;95690.31;5051817;28;20586;-61
2021/03/20 04:26:37;;;;;;;25.10;16.63;;;;;;;2.20;98.58;95682.88;5051580;28;20197;-60
2021/03/20 04:29:10;;;;;;;24.40;15.13;;;;;;;2.28;98.52;95685.03;5051555;28;20230;-60
2021/03/20 04:31:41;;;;;;;20.97;13.80;;;;;;;2.23;97.81;95690.09;5051841;28;20196;-60
2021/03/20 04:34:15;;;;;;;21.73;14.90;;;;;;;2.18;98.65;95692.59;5051471;28;20229;-60
2021/03/20 04:36:47;;;;;;;23.13;16.00;;;;;;;2.21;98.33;95694.69;5051495;28;20236;-60
2021/03/20 04:39:19;;;;;;;23.37;15.23;;;;;;;2.19;98.99;95701.06;5051437;28;20193;-60
2021/03/20 04:41:48;;;;;;;21.33;14.50;;;;;;;2.24;97.92;95703.69;5051605;28;20228;-59
2021/03/20 04:44:15;;;;;;;22.60;14.17;;;;;;;2.33;97.26;95702.28;5051698;28;20224;-60
2021/03/20 04:46:42;;;;;;;22.37;13.30;;;;;;;2.29;97.11;95691.69;5051046;28;20289;-59
2021/03/20 04:49:19;;;;;;;19.90;13.63;;;;;;;2.36;96.79;95694.88;5050940;28;20252;-60
2021/03/20 04:51:52;;;;;;;19.23;13.43;;;;;;;2.31;96.92;95694.81;5051049;28;20283;-60
2021/03/20 04:54:21;;;;;;;19.13;13.73;;;;;;;2.34;96.23;95689.19;5051290;28;20237;-59
2021/03/20 04:56:53;;;;;;;18.40;12.47;;;;;;;2.39;96.04;95686.72;5051073;28;20206;-60
2021/03/20 04:59:42;;;;;;;19.77;12.57;;;;;;;2.38;95.25;95680.06;5051015;28;20258;-60
2021/03/20 05:02:17;;;;;;;16.37;11.60;;;;;;;2.38;94.84;95687.75;5050924;28;20226;-61
2021/03/20 05:04:49;;;;;;;17.97;11.80;;;;;;;2.27;95.54;95683.47;5050990;28;20200;-60
2021/03/20 05:07:19;;;;;;;18.80;12.33;;;;;;;2.38;94.28;95695.44;5051098;28;20190;-60
2021/03/20 05:09:46;;;;;;;16.70;11.47;;;;;;;2.46;92.98;95700.16;5050646;28;20672;-60
2021/03/20 05:12:19;;;;;;;24.90;16.00;;;;;;;2.40;92.91;95697.75;5050786;28;20195;-60
2021/03/20 05:14:52;;;;;;;20.63;13.57;;;;;;;2.37;93.02;95699.00;5050530;28;20364;-60
2021/03/20 05:17:22;;;;;;;17.63;11.63;;;;;;;2.46;93.09;95704.50;5050604;28;20199;-60
2021/03/20 05:19:49;;;;;;;16.93;10.83;;;;;;;2.47;92.73;95708.63;5051141;28;20680;-58
2021/03/20 05:22:23;;;;;;;21.83;13.73;;;;;;;2.37;93.31;95703.34;5050967;28;20204;-61
2021/03/20 05:24:51;;;;;;;21.50;13.80;;;;;;;2.36;94.19;95704.34;5050607;28;20200;-61
2021/03/20 05:27:23;;;;;;;20.77;13.70;;;;;;;2.29;93.62;95706.34;5049738;28;20286;-60
2021/03/20 05:29:52;;;;;;;21.70;13.97;;;;;;;2.39;93.56;95709.78;5050539;28;20209;-60
2021/03/20 05:32:30;;;;;;;24.47;14.60;;;;;;;2.48;91.94;95705.81;5050453;28;20635;-60
2021/03/20 05:34:59;;;;;;;25.03;14.63;;;;;;;2.52;92.96;95711.25;5050237;28;20271;-60
2021/03/20 05:37:30;;;;;;;24.83;15.67;;;;;;;2.58;92.08;95710.31;5050307;28;20202;-60
2021/03/20 05:39:57;;;;;;;20.87;12.43;;;;;;;2.55;90.89;95708.97;5049497;28;20203;-60
2021/03/20 05:42:46;;;;;;;26.57;14.17;;;;;;;2.62;90.49;95706.25;5049919;28;20205;-60
2021/03/20 05:45:28;;;;;;;23.23;13.37;;;;;;;2.53;90.39;95708.47;5050037;28;20196;-60
2021/03/20 05:48:07;;;;;;;26.07;16.07;;;;;;;2.68;91.35;95710.44;5049761;28;20212;-60
2021/03/20 05:51:19;;;;;;;29.67;18.50;;;;;;;2.81;91.30;95702.38;5050000;28;20236;-61
2021/03/20 05:54:14;;;;;;;40.10;27.00;;;;;;;2.80;91.37;95702.59;5045339;28;20224;-61
2021/03/20 05:56:53;;;;;;;45.70;27.00;;;;;;;2.80;91.19;95700.81;5049802;28;20243;-60
2021/03/20 05:59:32;;;;;;;31.90;19.63;;;;;;;3.02;90.17;95711.88;5049863;28;20197;-60
2021/03/20 06:02:21;;;;;;;27.00;16.67;;;;;;;3.13;89.51;95707.63;5049647;28;20253;-60
2021/03/20 06:05:02;;;;;;;38.77;23.40;;;;;;;3.10;89.32;95708.09;5044265;28;20194;-60
2021/03/20 06:07:49;;;;;;;35.53;23.80;;;;;;;3.10;90.23;95708.09;5049554;28;20197;-60
2021/03/20 06:10:37;;;;;;;33.13;21.10;;;;;;;3.21;89.96;95708.97;5049497;28;20221;-60
2021/03/20 06:13:20;;;;;;;37.33;19.43;;;;;;;3.15;90.19;95707.38;5049392;28;20200;-60
2021/03/20 06:16:06;;;;;;;33.47;18.73;;;;;;;3.27;90.10;95711.38;5049454;28;20251;-59
2021/03/20 06:18:58;;;;;;;27.37;17.03;;;;;;;3.37;90.06;95705.56;5049736;28;20224;-60
2021/03/20 06:21:39;;;;;;;32.60;22.00;;;;;;;3.43;92.16;95702.00;5049493;28;20237;-60
2021/03/20 06:24:48;;;;;;;41.60;23.27;;;;;;;3.50;93.94;95701.81;5049387;28;20192;-60
2021/03/20 06:27:21;;;;;;;28.43;17.20;;;;;;;3.56;93.56;95706.75;5049450;28;20279;-61
2021/03/20 06:29:57;;;;;;;24.70;16.17;;;;;;;3.64;92.67;95708.09;5049217;28;20280;-61
2021/03/20 06:32:31;;;;;;;30.40;18.93;;;;;;;3.64;93.22;95708.09;5049224;28;20201;-60
2021/03/20 06:35:04;;;;;;;36.17;21.83;;;;;;;3.70;93.56;95707.13;5049187;28;20323;-61
2021/03/20 06:37:35;;;;;;;28.63;18.70;;;;;;;3.71;93.93;95709.47;5049301;28;20215;-61
2021/03/20 06:40:06;;;;;;;26.67;18.53;;;;;;;3.74;91.80;95708.97;5053077;28;20255;-62
2021/03/20 06:42:36;;;;;;;33.77;20.97;;;;;;;3.88;92.68;95710.13;5053172;28;20272;-61
2021/03/20 06:45:17;;;;;;;29.87;17.93;;;;;;;4.05;92.32;95715.13;5052696;28;20668;-62
2021/03/20 06:47:51;;;;;;;31.07;18.33;;;;;;;4.05;90.49;95707.41;5052526;28;20197;-59
2021/03/20 06:50:21;;;;;;;33.60;19.90;;;;;;;4.09;90.37;95717.97;5053210;28;20582;-60
2021/03/20 06:52:51;;;;;;;256.03;113.33;;;;;;;4.02;91.21;95719.97;5053013;28;20262;-60
2021/03/20 06:55:25;;;;;;;112.27;84.80;;;;;;;4.07;90.21;95722.59;5053202;28;20575;-61
2021/03/20 06:57:53;;;;;;;68.37;55.20;;;;;;;4.15;89.68;95725.47;5052835;28;20225;-60
2021/03/20 07:00:23;;;;;;;34.23;21.20;;;;;;;4.13;88.64;95719.81;5052745;28;20565;-61
2021/03/20 07:03:02;;;;;;;29.70;19.43;;;;;;;4.08;88.25;95722.34;5052886;28;20263;-60
2021/03/20 07:05:44;;;;;;;41.10;24.40;;;;;;;4.10;88.73;95725.44;5052673;28;20284;-60
2021/03/20 07:08:31;;;;;;;34.77;22.10;;;;;;;4.06;88.61;95721.81;5052576;28;20283;-59
2021/03/20 07:10:58;;;;;;;40.60;27.13;;;;;;;4.13;89.63;95722.41;5052654;28;20700;-61
2021/03/20 07:13:28;;;;;;;37.97;27.47;;;;;;;4.20;91.00;95733.22;5052535;28;20282;-61
2021/03/20 07:16:11;;;;;;;47.40;28.33;;;;;;;4.21;90.98;95739.94;5052464;28;20320;-60
2021/03/20 07:18:44;;;;;;;40.20;26.10;;;;;;;4.32;89.30;95728.69;5052594;28;20201;-60
2021/03/20 07:21:38;;;;;;;53.03;29.50;;;;;;;4.28;90.03;95729.44;5052475;28;20205;-60
2021/03/20 07:24:10;;;;;;;45.87;28.13;;;;;;;4.36;91.22;95726.38;5028251;28;20631;-61
2021/03/20 07:26:53;;;;;;;37.23;24.93;;;;;;;4.47;89.00;95720.28;5052478;28;20284;-61
2021/03/20 07:29:37;;;;;;;37.07;24.33;;;;;;;4.52;90.34;95725.47;5050907;28;20551;-62
2021/03/20 07:32:05;;;;;;;36.67;24.43;;;;;;;4.61;88.31;95716.25;5052320;28;20279;-62
2021/03/20 07:34:35;;;;;;;35.50;24.23;;;;;;;4.72;88.89;95714.50;5052164;28;20615;-60
2021/03/20 07:37:06;;;;;;;30.20;20.60;;;;;;;4.72;88.16;95715.28;5052354;28;20283;-62
2021/03/20 07:39:43;;;;;;;31.07;21.80;;;;;;;4.74;87.62;95717.59;5052230;28;20280;-61
2021/03/20 07:42:27;;;;;;;37.83;22.87;;;;;;;4.68;87.01;95719.34;5052029;28;20195;-62
2021/03/20 07:44:56;;;;;;;333.40;121.13;;;;;;;4.56;88.24;95716.22;5052147;28;20216;-62
2021/03/20 07:47:26;;;;;;;248.00;94.67;;;;;;;4.59;91.01;95718.28;5052081;28;20201;-60
2021/03/20 07:50:09;;;;;;;343.07;121.87;;;;;;;4.69;90.34;95726.06;5050625;28;20312;-61
2021/03/20 07:52:36;;;;;;;110.17;57.50;;;;;;;4.62;88.56;95730.66;5051855;28;20668;-61
2021/03/20 07:55:19;;;;;;;261.13;94.73;;;;;;;4.68;89.85;95723.75;5051783;28;20307;-61
2021/03/20 07:57:52;;;;;;;380.63;131.53;;;;;;;4.75;89.23;95725.06;5051751;28;20193;-61
2021/03/20 08:00:26;;;;;;;463.27;165.13;;;;;;;4.77;89.21;95727.41;5051769;28;20201;-61
2021/03/20 08:02:54;;;;;;;481.63;173.50;;;;;;;4.92;88.68;95739.56;5051664;28;20193;-60
2021/03/20 08:05:31;;;;;;;238.00;85.13;;;;;;;4.86;88.17;95730.25;5051546;28;20701;-62
2021/03/20 08:08:18;;;;;;;586.47;230.33;;;;;;;4.83;88.37;95726.41;5051606;28;20573;-62
2021/03/20 08:10:46;;;;;;;308.40;104.00;;;;;;;5.02;87.88;95727.50;5051615;28;20217;-61
2021/03/20 08:13:32;;;;;;;333.13;107.23;;;;;;;5.06;88.00;95727.78;5051321;28;20639;-61
2021/03/20 08:15:59;;;;;;;332.73;107.73;;;;;;;5.04;87.12;95742.69;5051207;28;20200;-61
2021/03/20 08:18:29;;;;;;;362.80;112.20;;;;;;;5.09;88.26;95746.06;5051563;28;20820;-61
2021/03/20 08:21:33;;;;;;;138.37;51.87;;;;;;;5.06;88.25;95751.72;5051254;28;20236;-61
2021/03/20 08:24:25;;;;;;;152.93;56.57;;;;;;;5.13;86.64;95743.78;5051373;28;20660;-60
2021/03/20 08:27:01;;;;;;;76.50;36.63;;;;;;;5.10;85.69;95737.31;5051308;28;20200;-60
2021/03/20 08:30:12;;;;;;;90.77;37.43;;;;;;;5.27;84.83;95744.84;5050167;28;20298;-60
2021/03/20 08:32:53;;;;;;;120.97;51.83;;;;;;;5.55;83.74;95739.25;5051196;28;20228;-60
2021/03/20 08:35:26;;;;;;;68.80;38.47;;;;;;;5.65;82.82;95748.78;5051026;28;20227;-60
2021/03/20 08:38:11;;;;;;;102.40;44.43;;;;;;;5.88;83.55;95757.88;5051277;28;20220;-61
2021/03/20 08:40:53;;;;;;;53.93;28.20;;;;;;;5.93;80.92;95756.06;5050974;28;20193;-61
2021/03/20 08:43:48;;;;;;;53.53;24.00;;;;;;;5.80;80.05;95751.41;5050985;28;20245;-61
2021/03/20 08:46:28;;;;;;;45.87;25.37;;;;;;;5.91;79.32;95755.56;5051128;28;20197;-61
2021/03/20 08:49:08;;;;;;;44.83;24.70;;;;;;;6.04;77.90;95757.63;5050449;28;20661;-60
2021/03/20 08:51:44;;;;;;;29.20;18.70;;;;;;;6.16;77.65;95756.63;5050903;28;20228;-60
2021/03/20 08:54:30;;;;;;;28.30;18.13;;;;;;;6.29;77.42;95753.50;5050982;28;20308;-60
2021/03/20 08:57:06;;;;;;;48.07;25.83;;;;;;;6.44;77.50;95740.59;5050885;28;20287;-60
2021/03/20 08:59:36;;;;;;;28.47;16.67;;;;;;;6.42;76.24;95742.66;5050787;28;20228;-60
2021/03/20 09:02:23;;;;;;;73.20;33.70;;;;;;;6.46;75.43;95743.69;5050665;28;20205;-60
2021/03/20 09:04:53;;;;;;;62.33;30.10;;;;;;;6.71;75.76;95741.06;5050516;28;20236;-60
2021/03/20 09:07:23;;;;;;;17.67;10.90;;;;;;;6.63;71.22;95743.38;5050633;28;20208;-60
2021/03/20 09:09:54;;;;;;;21.80;13.57;;;;;;;6.54;73.41;95740.56;5050395;28;20601;-61
2021/03/20 09:12:26;;;;;;;43.07;20.20;;;;;;;6.57;76.36;95745.22;5050337;28;20215;-59
2021/03/20 09:14:53;;;;;;;22.23;12.87;;;;;;;6.64;72.39;95750.09;5050310;28;20255;-61
2021/03/20 09:17:23;;;;;;;17.23;10.37;;;;;;;6.52;71.12;95752.97;5050346;28;20203;-61
2021/03/20 09:19:55;;;;;;;69.87;29.83;;;;;;;6.58;73.24;95745.97;5050152;28;20216;-61
2021/03/20 09:22:27;;;;;;;92.10;35.43;;;;;;;6.88;72.51;95749.25;5050137;28;20201;-61
2021/03/20 09:24:57;;;;;;;20.13;11.03;;;;;;;7.11;69.96;95744.53;5050043;28;20201;-61
2021/03/20 09:27:59;;;;;;;16.73;10.13;;;;;;;7.09;71.11;95731.09;5050048;28;20284;-61
2021/03/20 09:30:30;;;;;;;12.77;9.00;;;;;;;7.23;69.73;95737.25;5050159;28;20197;-62
2021/03/20 09:32:58;;;;;;;10.60;7.30;;;;;;;7.13;67.30;95737.28;5050055;28;20279;-61
2021/03/20 09:35:38;;;;;;;19.77;10.73;;;;;;;7.18;68.81;95730.28;5049825;28;20798;-61
2021/03/20 09:38:06;;;;;;;29.27;15.07;;;;;;;7.53;68.04;95726.75;5049851;28;20707;-63
2021/03/20 09:40:53;;;;;;;28.53;15.60;;;;;;;7.53;66.92;95724.16;5049855;28;20288;-61
2021/03/20 09:43:37;;;;;;;32.13;16.73;;;;;;;7.38;67.33;95719.06;5049813;28;20193;-62
2021/03/20 09:46:47;;;;;;;20.00;13.50;;;;;;;7.45;66.92;95714.41;5050048;28;20193;-61
2021/03/20 09:49:57;;;;;;;17.13;9.93;;;;;;;7.44;68.04;95705.09;5049558;28;20315;-61
2021/03/20 09:52:56;;;;;;;23.47;13.77;;;;;;;7.31;67.96;95693.53;5049694;28;20207;-63
2021/03/20 09:55:47;;;;;;;19.63;12.60;;;;;;;7.32;67.71;95689.91;5049569;28;20290;-62
2021/03/20 09:58:37;;;;;;;28.53;16.20;;;;;;;7.18;68.49;95695.91;5049558;28;20570;-63
2021/03/20 10:01:08;;;;;;;38.80;15.37;;;;;;;7.37;68.52;95696.88;5049612;28;20200;-61
2021/03/20 10:04:22;;;;;;;58.00;31.50;;;;;;;7.38;70.13;95700.22;5049614;28;20679;-62
2021/03/20 10:07:18;;;;;;;61.20;31.73;;;;;;;7.38;71.76;95698.41;5049399;28;20636;-61
2021/03/20 10:09:54;;;;;;;18.37;10.93;;;;;;;7.44;68.72;95696.56;5049298;28;20774;-62
2021/03/20 10:12:24;;;;;;;22.93;15.43;;;;;;;7.54;68.60;95705.03;5049247;28;20199;-61
2021/03/20 10:15:02;;;;;;;33.87;20.93;;;;;;;7.46;67.59;95703.03;5048983;28;20316;-62
2021/03/20 10:17:31;;;;;;;16.60;10.57;;;;;;;7.38;68.08;95690.63;5049319;28;20200;-63
2021/03/20 10:20:16;;;;;;;13.57;10.10;;;;;;;7.26;69.34;95682.47;5049302;28;20280;-64
2021/03/20 10:23:01;;;;;;;20.20;13.20;;;;;;;7.07;71.87;95687.47;5049499;28;20189;-62
2021/03/20 10:25:31;;;;;;;34.23;20.40;;;;;;;6.99;74.88;95685.41;5048915;28;20356;-62
2021/03/20 10:28:01;;;;;;;29.03;19.10;;;;;;;7.15;74.01;95683.53;5049334;28;20233;-61
2021/03/20 10:30:30;;;;;;;35.73;22.10;;;;;;;7.16;74.15;95682.50;5049280;28;20334;-60
2021/03/20 10:32:59;;;;;;;34.17;18.70;;;;;;;7.35;73.63;95683.44;5049356;28;20252;-62
2021/03/20 10:35:27;;;;;;;37.37;22.23;;;;;;;7.48;73.27;95685.41;5049115;28;20311;-61
2021/03/20 10:37:55;;;;;;;46.57;26.33;;;;;;;7.58;73.45;95677.59;5048987;28;20247;-61
2021/03/20 10:40:24;;;;;;;38.13;22.03;;;;;;;7.52;72.18;95668.31;5049348;28;20212;-61
2021/03/20 10:42:55;;;;;;;40.60;24.13;;;;;;;7.55;74.01;95672.97;5049108;28;20251;-64
2021/03/20 10:45:30;;;;;;;55.50;29.57;;;;;;;7.51;73.36;95666.00;5049185;28;20197;-61
2021/03/20 10:48:03;;;;;;;27.17;15.40;;;;;;;7.41;72.64;95676.41;5048930;28;20196;-61
2021/03/20 10:50:34;;;;;;;39.23;25.30;;;;;;;7.43;77.12;95664.75;5049296;28;20199;-61
2021/03/20 10:53:03;;;;;;;44.27;27.23;;;;;;;7.54;78.76;95660.28;5049570;28;20209;-61
2021/03/20 10:55:39;;;;;;;22.83;16.43;;;;;;;7.54;75.58;95665.47;5049356;28;20228;-60
2021/03/20 10:58:08;;;;;;;28.37;18.03;;;;;;;7.67;75.70;95660.44;5049431;28;20552;-61
2021/03/20 11:00:42;;;;;;;54.33;29.07;;;;;;;7.71;72.43;95660.69;5049364;28;20280;-61
2021/03/20 11:03:12;;;;;;;20.83;13.23;;;;;;;7.61;71.33;95653.78;5049672;28;20306;-62
2021/03/20 11:05:40;;;;;;;21.27;13.07;;;;;;;7.49;70.99;95655.16;5049364;28;20197;-61
2021/03/20 11:08:14;;;;;;;20.77;12.23;;;;;;;7.58;70.85;95649.16;5049454;28;20241;-60
2021/03/20 11:10:44;;;;;;;17.20;10.73;;;;;;;7.58;69.08;95649.16;5049195;28;20213;-61
2021/03/20 11:13:34;;;;;;;36.87;19.27;;;;;;;7.58;71.97;95641.38;5049306;28;20668;-61
2021/03/20 11:16:08;;;;;;;19.07;11.60;;;;;;;7.30;70.57;95650.63;5049360;28;20263;-61
2021/03/20 11:18:39;;;;;;;21.80;12.60;;;;;;;7.10;71.60;95645.59;5049295;28;20279;-61
2021/03/20 11:21:19;;;;;;;25.53;14.73;;;;;;;6.93;73.43;95645.13;5049319;28;20284;-61
2021/03/20 11:23:54;;;;;;;29.70;14.87;;;;;;;6.64;74.95;95632.09;5049024;28;20197;-61
2021/03/20 11:26:35;;;;;;;39.20;18.37;;;;;;;6.58;76.38;95637.53;5051616;28;20193;-62
2021/03/20 11:29:05;;;;;;;33.97;17.47;;;;;;;6.63;77.88;95627.19;5052791;28;20276;-61
2021/03/20 11:31:39;;;;;;;27.00;15.73;;;;;;;6.77;77.54;95625.59;5052654;28;20247;-62
2021/03/20 11:34:07;;;;;;;25.07;16.37;;;;;;;7.06;78.91;95618.75;5052521;28;20234;-61
2021/03/20 11:36:35;;;;;;;23.43;13.13;;;;;;;7.26;73.76;95612.66;5052503;28;20229;-61
2021/03/20 11:39:09;;;;;;;21.00;13.27;;;;;;;7.44;73.29;95606.06;5052529;28;20203;-62
2021/03/20 11:41:38;;;;;;;15.00;11.13;;;;;;;7.33;73.48;95605.38;5052546;28;20592;-60
2021/03/20 11:44:14;;;;;;;17.30;10.90;;;;;;;7.21;72.63;95605.72;5052544;28;20244;-60
2021/03/20 11:46:50;;;;;;;12.83;9.47;;;;;;;7.13;73.54;95608.09;5052427;28;20189;-60
2021/03/20 11:49:24;;;;;;;21.30;12.43;;;;;;;6.85;72.26;95614.72;5052140;28;20771;-62
2021/03/20 11:51:52;;;;;;;20.10;12.73;;;;;;;6.72;71.76;95613.50;5052158;28;20193;-61
2021/03/20 11:54:27;;;;;;;13.53;9.20;;;;;;;6.63;71.71;95604.72;5052288;28;20232;-61
2021/03/20 11:56:58;;;;;;;16.33;10.67;;;;;;;6.67;73.87;95599.84;5052220;28;20193;-62
2021/03/20 11:59:35;;;;;;;11.13;8.03;;;;;;;6.49;71.72;95603.75;5052216;28;20197;-62
2021/03/20 12:02:02;;;;;;;20.13;12.47;;;;;;;6.45;72.00;95598.38;5052210;28;20276;-62